Wetterdaten: Februar 2014
Datum Temp Feuchte Luftdruck Regen Wind Richtung Sonnenschein UV Solar Windben
01.02.2014 2,1 C 94 % 1002,9 hPa 3,0 l/m 12,0 km/h S-SO 0,00 h 0,0 UV-I 29 W/m 18,9 km/h
02.02.2014 2,6 C 91 % 1014,7 hPa 0,2 l/m 2,9 km/h S 6,00 h 0,8 UV-I 187 W/m 7,2 km/h
03.02.2014 1,8 C 95 % 1011,1 hPa 0,2 l/m 6,8 km/h SO 3,17 h 0,7 UV-I 134 W/m 16,5 km/h
04.02.2014 2,9 C 92 % 1009,2 hPa 0,0 l/m 7,3 km/h S-SO 0,58 h 0,6 UV-I 76 W/m 16,1 km/h
05.02.2014 2,7 C 91 % 999,3 hPa 0,0 l/m 11,5 km/h S-SO 2,50 h 0,7 UV-I 122 W/m 20,1 km/h
06.02.2014 5,6 C 85 % 1001,6 hPa 2,4 l/m 15,3 km/h S-SO 1,67 h 0,7 UV-I 127 W/m 24,9 km/h
07.02.2014 6,6 C 85 % 996,1 hPa 1,4 l/m 17,4 km/h S-SO 1,83 h 0,7 UV-I 122 W/m 35,4 km/h
08.02.2014 4,6 C 89 % 992,1 hPa 1,2 l/m 21,0 km/h S-SO 0,00 h 0,6 UV-I 54 W/m 36,2 km/h
09.02.2014 4,7 C 74 % 994,7 hPa 0,0 l/m 14,0 km/h S 3,25 h 0,7 UV-I 144 W/m 23,0 km/h
10.02.2014 2,8 C 88 % 995,7 hPa 1,4 l/m 5,0 km/h S-SO 0,25 h 0,6 UV-I 104 W/m 8,9 km/h
11.02.2014 4,3 C 83 % 1001,4 hPa 2,0 l/m 14,9 km/h S-SW 1,25 h 0,6 UV-I 82 W/m 27,0 km/h
12.02.2014 4,4 C 81 % 1003,3 hPa 4,4 l/m 20,0 km/h S 3,33 h 0,7 UV-I 160 W/m 35,4 km/h
13.02.2014 3,7 C 91 % 995,4 hPa 8,8 l/m 11,6 km/h S 1,08 h 0,6 UV-I 89 W/m 20,9 km/h
14.02.2014 4,3 C 87 % 1003,0 hPa 2,4 l/m 23,6 km/h S 5,83 h 0,9 UV-I 226 W/m 36,6 km/h
15.02.2014 8,0 C 80 % 998,6 hPa 0,0 l/m 16,0 km/h S 1,42 h 0,6 UV-I 120 W/m 30,1 km/h
16.02.2014 5,1 C 84 % 1008,5 hPa 8,4 l/m 8,6 km/h S-SW 3,33 h 0,8 UV-I 168 W/m 20,1 km/h
17.02.2014 3,2 C 90 % 1015,0 hPa 0,0 l/m 1,1 km/h S 0,50 h 0,6 UV-I 101 W/m 4,4 km/h
18.02.2014 3,4 C 89 % 1013,2 hPa 0,0 l/m 9,0 km/h S 0,00 h 0,5 UV-I 81 W/m 12,5 km/h
19.02.2014 5,8 C 92 % 1012,5 hPa 1,4 l/m 0,9 km/h S-SW 0,33 h 0,6 UV-I 69 W/m 6,4 km/h
20.02.2014 7,6 C 83 % 1007,8 hPa 0,2 l/m 13,3 km/h S 3,83 h 1,1 UV-I 199 W/m 19,7 km/h
21.02.2014 4,3 C 93 % 1006,8 hPa 7,2 l/m 6,2 km/h S-SW 0,50 h 0,7 UV-I 94 W/m 16,5 km/h
22.02.2014 2,8 C 91 % 1015,2 hPa 0,4 l/m 4,6 km/h S 2,17 h 0,8 UV-I 104 W/m 8,5 km/h
23.02.2014 2,9 C 86 % 1021,0 hPa 0,0 l/m 4,9 km/h S 7,40 h 1,2 UV-I 258 W/m 9,3 km/h
24.02.2014 6,4 C 67 % 1014,7 hPa 0,0 l/m 16,7 km/h S-SO 8,00 h 1,1 UV-I 264 W/m 23,8 km/h
25.02.2014 7,3 C 76 % 1011,0 hPa 0,0 l/m 8,7 km/h S-SO 3,17 h 1,0 UV-I 193 W/m 17,7 km/h
26.02.2014 5,7 C 88 % 1016,8 hPa 0,0 l/m 0,6 km/h S 1,50 h 0,9 UV-I 124 W/m 2,8 km/h
27.02.2014 4,8 C 85 % 1012,5 hPa 0,6 l/m 7,0 km/h S-SO 7,58 h 1,1 UV-I 260 W/m 9,3 km/h
28.02.2014 3,9 C 88 % 1002,7 hPa 1,4 l/m 4,9 km/h S-SO 4,00 h 1,0 UV-I 194 W/m 9,2 km/h
Min-Datum 03.02.14 24.02.14 07.02.14 18 Tage 01.02.14 - - - - 01.02.14
Min-Zeit 03:20 15:10 12:20 - 23:10 - - - - 23:10
Minimum -3,0 C 46 % 989,0 hPa - 0,0 km/h - - - - 0,0 km/h
Max-Datum 07.02.14 13.02.14 23.02.14 13.02.14 07.02.14 - 24.02.14 23.02.14 28.02.14 07.02.14
Max-Zeit 12:55 18:35 09:55 14:35 13:30 - 16:15 12:30 11:40 13:10
Maximum 12,3 C 100 % 1022,2 hPa 8,8 l/m 49,3 km/h
S-SO
- 7,92 h 1,9 UV-I 619 W/m 70,8 km/h
S-SO
Durchschnitt 4,4 C 86 % 1006,3 hPa #47,0 l/m 10,2 km/h S #74:29 h 0,8 UV-I 139 W/m 18,5 km/h

Durchschnitt Minimum Temp.1,3 C
Durchschnitt Maximum Temp.7,7 C